Time;durP1;ratioP1;P1;durP2;ratioP2;P2;SDS_P1;SDS_P2;PMS_P1;PMS_P2;Temp;Humidity;BMP_temperature;BMP_pressure;BME280_temperature;BME280_humidity;BME280_pressure;Samples;Min_cycle;Max_cycle;Signal;HPM_P1;HPM_P2
2022/01/21 00:01:58;;;;;;;38.45;20.97;;;;;;;-2.45;57.78;93900.98;1636721;86;21167;-47
2022/01/21 00:04:30;;;;;;;35.43;22.58;;;;;;;-2.54;57.90;93898.48;1624198;86;21582;-47
2022/01/21 00:06:59;;;;;;;33.75;20.02;;;;;;;-2.57;58.33;93910.77;1638146;86;21203;-47
2022/01/21 00:09:25;;;;;;;29.23;15.78;;;;;;;-2.53;58.02;93907.50;1619023;86;21038;-47
2022/01/21 00:11:58;;;;;;;33.70;18.02;;;;;;;-2.63;57.84;93908.28;1622736;86;21434;-49
2022/01/21 00:14:25;;;;;;;;;;;;;;;-2.77;57.80;93912.87;1647812;86;21147;-47
2022/01/21 00:16:52;;;;;;;37.25;19.48;;;;;;;-2.99;58.26;93909.41;1652669;85;20172;-47
2022/01/21 00:19:23;;;;;;;39.35;21.57;;;;;;;-3.11;58.49;93909.75;1636447;86;21034;-47
2022/01/21 00:30:14;;;;;;;69.25;30.80;;;;;;;-3.52;59.02;93911.18;1617572;86;21009;-50
2022/01/21 00:32:44;;;;;;;76.45;34.48;;;;;;;-3.54;59.31;93902.53;1640713;86;21092;-46
2022/01/21 00:35:13;;;;;;;100.53;42.27;;;;;;;-3.53;59.62;93909.45;1641141;86;21145;-47
2022/01/21 00:37:40;;;;;;;98.82;42.75;;;;;;;-3.60;59.60;93910.75;1646730;86;21080;-48
2022/01/21 00:40:10;;;;;;;77.35;36.08;;;;;;;-3.70;59.62;93915.52;1649843;86;21764;-48
2022/01/21 00:45:14;;;;;;;75.52;33.00;;;;;;;-3.83;59.99;93919.67;1643261;86;21039;-48
2022/01/21 00:47:42;;;;;;;76.10;33.83;;;;;;;-3.87;60.42;93922.92;1640672;86;21072;-48
2022/01/21 00:50:09;;;;;;;61.70;31.82;;;;;;;-3.91;60.74;93922.14;1640104;85;21016;-49
2022/01/21 00:52:38;;;;;;;63.30;30.68;;;;;;;-3.98;61.15;93922.08;1638972;86;22272;-49
2022/01/21 00:55:06;;;;;;;75.72;37.30;;;;;;;-3.99;61.16;93923.23;1647840;86;21025;-46
2022/01/21 00:57:33;;;;;;;72.40;36.28;;;;;;;-4.07;61.18;93928.38;1634412;86;21722;-49
2022/01/21 01:00:01;;;;;;;66.45;33.70;;;;;;;-4.12;61.21;93932.73;1653862;86;21128;-48
2022/01/21 01:02:29;;;;;;;67.60;31.00;;;;;;;-4.20;61.21;93934.61;1637169;86;21094;-46
2022/01/21 01:04:58;;;;;;;72.08;34.78;;;;;;;-4.29;61.23;93936.08;1650266;85;22306;-48
2022/01/21 01:07:25;;;;;;;77.67;35.08;;;;;;;-4.44;62.08;93946.53;1632933;86;21025;-47
2022/01/21 01:09:55;;;;;;;69.32;34.23;;;;;;;-4.50;61.96;93939.95;1627554;86;21077;-49
2022/01/21 01:12:57;;;;;;;65.08;32.38;;;;;;;-4.54;62.57;93943.19;1645477;86;21113;-48
2022/01/21 01:20:24;;;;;;;60.90;28.98;;;;;;;-4.34;62.09;93952.53;1638136;86;21011;-48
2022/01/21 01:23:04;;;;;;;49.98;25.90;;;;;;;-4.35;62.17;93942.95;1608907;86;21077;-46
2022/01/21 01:28:09;;;;;;;57.25;29.48;;;;;;;-4.43;62.42;93947.48;1621164;87;21060;-48
2022/01/21 01:30:36;;;;;;;56.53;28.55;;;;;;;-4.45;62.68;93951.70;1653517;86;21149;-48
2022/01/21 01:33:07;;;;;;;64.07;32.65;;;;;;;-4.53;62.69;93950.09;1651604;86;21534;-47
2022/01/21 01:35:33;;;;;;;91.47;47.80;;;;;;;-4.65;62.58;93957.08;1647114;85;21490;-47
2022/01/21 01:40:43;;;;;;;84.20;43.78;;;;;;;-4.68;63.23;93941.17;1649601;86;21557;-47
2022/01/21 01:49:23;;;;;;;96.15;48.13;;;;;;;-4.59;63.00;93940.27;1628820;86;21322;-51
2022/01/21 01:51:00;;;;;;;138.95;68.78;;;;;;;-4.57;62.39;93926.49;1634956;86;21081;-47
2022/01/21 01:53:37;;;;;;;90.45;43.65;;;;;;;-4.69;62.44;93931.58;1649198;85;21124;-48
2022/01/21 01:56:07;;;;;;;98.40;47.85;;;;;;;-4.85;62.17;93927.03;1644637;85;21164;-48
2022/01/21 01:58:37;;;;;;;87.97;42.00;;;;;;;-4.92;62.44;93926.20;1601002;86;21043;-47
2022/01/21 02:01:05;;;;;;;78.37;42.05;;;;;;;-5.01;62.38;93927.84;1643652;86;21075;-47
2022/01/21 02:03:33;;;;;;;87.62;45.05;;;;;;;-5.08;62.38;93930.47;1647166;86;21049;-47
2022/01/21 02:06:00;;;;;;;107.10;49.50;;;;;;;-5.11;62.38;93931.77;1641470;85;21096;-48
2022/01/21 02:08:29;;;;;;;100.82;46.00;;;;;;;-5.13;62.14;93931.37;1644279;86;21353;-48
2022/01/21 02:10:57;;;;;;;104.63;44.45;;;;;;;-5.19;62.32;93934.19;1640406;86;21145;-47
2022/01/21 02:13:32;;;;;;;99.20;41.60;;;;;;;-5.16;62.79;93935.55;1643812;86;21037;-48
2022/01/21 02:16:08;;;;;;;90.28;40.25;;;;;;;-5.04;62.47;93930.48;1649432;85;21141;-48
2022/01/21 02:23:55;;;;;;;92.08;42.38;;;;;;;-5.16;61.39;93940.91;1651530;86;21494;-48
2022/01/21 02:26:22;;;;;;;97.02;43.23;;;;;;;-5.36;62.11;93940.14;1640065;86;20998;-49
2022/01/21 02:28:49;;;;;;;113.68;46.95;;;;;;;-5.35;62.20;93944.36;1640193;86;21093;-46
2022/01/21 02:31:16;;;;;;;98.90;46.40;;;;;;;-5.44;61.79;93945.78;1647867;86;21053;-47
2022/01/21 02:33:43;;;;;;;94.60;45.55;;;;;;;-5.62;62.02;93953.59;1610244;86;22183;-47
2022/01/21 02:36:14;;;;;;;84.40;41.60;;;;;;;-5.74;62.29;93961.11;1610581;86;21608;-48
2022/01/21 02:38:41;;;;;;;124.15;54.70;;;;;;;-5.94;62.29;93969.86;1636016;86;21124;-47
2022/01/21 02:41:07;;;;;;;112.52;46.55;;;;;;;-6.12;62.77;93963.49;1649518;86;20998;-49
2022/01/21 02:43:34;;;;;;;101.02;45.03;;;;;;;-6.17;63.20;93964.39;1651769;86;21481;-46
2022/01/21 02:46:05;;;;;;;140.18;56.58;;;;;;;-6.18;63.44;93964.95;1642592;86;21844;-46
2022/01/21 02:48:37;;;;;;;156.47;62.27;;;;;;;-6.21;63.09;93963.55;1640744;86;21045;-47
2022/01/21 02:51:10;;;;;;;169.75;65.28;;;;;;;-6.29;63.02;93964.59;1631685;86;21027;-47
2022/01/21 02:56:16;;;;;;;131.10;50.90;;;;;;;-6.44;62.91;93972.98;1648963;86;21595;-47
2022/01/21 02:58:44;;;;;;;108.65;45.70;;;;;;;-6.52;63.24;93971.31;1638560;86;21159;-47
2022/01/21 03:01:11;;;;;;;90.60;36.93;;;;;;;-6.49;63.55;93963.15;1653900;86;21092;-46
2022/01/21 03:03:42;;;;;;;170.55;62.70;;;;;;;-6.46;63.70;93969.90;1646655;86;21461;-47
2022/01/21 03:06:09;;;;;;;157.18;61.90;;;;;;;-6.45;63.78;93974.67;1648015;85;21038;-48
2022/01/21 03:08:39;;;;;;;146.40;52.17;;;;;;;-6.52;63.70;93971.90;1649258;86;21517;-48
2022/01/21 03:11:06;;;;;;;160.28;62.33;;;;;;;-6.65;63.58;93980.69;1639412;86;21943;-47
2022/01/21 03:13:35;;;;;;;300.25;102.30;;;;;;;-6.95;63.48;93976.33;1644665;86;21030;-47
2022/01/21 03:16:03;;;;;;;282.40;97.22;;;;;;;-7.18;64.61;93981.47;1652811;85;21033;-47
2022/01/21 03:18:30;;;;;;;245.37;83.87;;;;;;;-7.09;65.09;93984.67;1644556;86;21117;-46
2022/01/21 03:20:56;;;;;;;423.73;130.55;;;;;;;-7.07;64.92;93984.53;1650617;86;21080;-46
2022/01/21 03:23:25;;;;;;;327.73;104.23;;;;;;;-7.04;64.85;93984.38;1629535;86;21138;-47
2022/01/21 03:25:53;;;;;;;319.48;103.12;;;;;;;-7.05;64.49;93982.28;1653718;86;21034;-46
2022/01/21 03:28:22;;;;;;;127.12;52.98;;;;;;;-6.99;64.53;93985.44;1641765;86;21030;-48
2022/01/21 03:30:55;;;;;;;358.35;110.83;;;;;;;-7.04;64.01;93977.14;1642955;85;21061;-47
2022/01/21 03:33:20;;;;;;;120.92;48.58;;;;;;;-7.06;64.16;93975.94;1629062;86;20981;-47
2022/01/21 03:35:51;;;;;;;136.32;54.67;;;;;;;-7.13;63.50;93977.92;1638755;86;21150;-46
2022/01/21 03:38:18;;;;;;;98.82;46.37;;;;;;;-7.31;63.32;93984.09;1644217;86;21108;-47
2022/01/21 03:40:45;;;;;;;107.52;47.08;;;;;;;-7.45;63.83;93983.81;1630287;86;21604;-47
2022/01/21 03:43:15;;;;;;;97.05;44.35;;;;;;;-7.42;63.90;93984.44;1651401;86;21128;-47
2022/01/21 03:45:42;;;;;;;97.30;43.28;;;;;;;-7.51;63.13;93983.33;1646759;84;21069;-46
2022/01/21 03:48:09;;;;;;;98.03;41.60;;;;;;;-7.68;63.08;93989.66;1644277;86;21139;-47
2022/01/21 03:50:37;;;;;;;102.65;45.38;;;;;;;-7.89;63.18;93981.23;1637924;85;21702;-47
2022/01/21 03:53:04;;;;;;;100.70;44.75;;;;;;;-7.88;64.06;93992.12;1645069;86;21093;-46
2022/01/21 03:55:32;;;;;;;105.52;45.70;;;;;;;-7.79;64.04;93997.46;1637786;86;21082;-46
2022/01/21 03:58:04;;;;;;;119.77;52.65;;;;;;;-7.74;63.67;93993.17;1645314;86;21124;-47
2022/01/21 04:00:37;;;;;;;129.82;54.77;;;;;;;-7.82;63.64;93996.83;1642065;86;21374;-47
2022/01/21 04:03:04;;;;;;;113.17;52.20;;;;;;;-7.78;64.60;94003.01;1643887;86;21495;-48
2022/01/21 04:05:33;;;;;;;134.85;58.05;;;;;;;-7.72;64.57;93996.84;1627239;86;21109;-47
2022/01/21 04:08:00;;;;;;;123.33;53.20;;;;;;;-7.66;64.07;94002.09;1631576;86;21085;-47
2022/01/21 04:10:30;;;;;;;118.00;53.30;;;;;;;-7.68;64.12;93995.00;1630322;86;21200;-48
2022/01/21 04:12:57;;;;;;;109.00;50.43;;;;;;;-7.59;64.29;94006.23;1663364;85;21151;-48
2022/01/21 04:15:25;;;;;;;131.22;56.15;;;;;;;-7.50;64.02;93998.80;1644056;86;21087;-47
2022/01/21 04:17:52;;;;;;;125.78;54.45;;;;;;;-7.37;63.83;94005.54;1640756;86;21117;-47
2022/01/21 04:20:20;;;;;;;141.95;55.70;;;;;;;-7.28;63.41;93998.85;1643998;85;21002;-46
2022/01/21 04:22:47;;;;;;;160.07;63.45;;;;;;;-7.26;62.61;93997.14;1669366;84;21041;-47
2022/01/21 04:25:14;;;;;;;138.00;57.25;;;;;;;-7.34;62.20;94002.16;1640340;86;21076;-47
2022/01/21 04:27:42;;;;;;;153.30;63.48;;;;;;;-7.44;62.50;94006.17;1637832;86;21061;-47
2022/01/21 04:30:10;;;;;;;233.82;93.17;;;;;;;-7.47;62.53;94005.55;1650462;86;21085;-48
2022/01/21 04:32:39;;;;;;;209.47;84.50;;;;;;;-7.51;62.21;94009.27;1669589;85;20998;-48
2022/01/21 04:35:10;;;;;;;202.20;80.15;;;;;;;-7.51;62.51;94010.60;1633767;86;21116;-47
2022/01/21 04:37:43;;;;;;;220.20;84.52;;;;;;;-7.43;61.98;94014.94;1629400;86;21167;-48
2022/01/21 04:40:15;;;;;;;217.62;91.75;;;;;;;-7.51;61.83;94018.61;1648831;85;21485;-49
2022/01/21 04:48:11;;;;;;;219.07;87.47;;;;;;;-7.53;61.71;94016.28;1647991;86;21045;-49
2022/01/21 04:50:41;;;;;;;185.20;76.35;;;;;;;-7.61;61.98;94011.94;1641733;86;21173;-48
2022/01/21 04:53:08;;;;;;;206.55;83.82;;;;;;;-7.60;61.82;94009.48;1644059;86;20970;-48
2022/01/21 04:55:39;;;;;;;187.12;74.65;;;;;;;-7.59;61.75;94008.90;1620577;86;21496;-49
2022/01/21 04:58:06;;;;;;;224.22;95.07;;;;;;;-7.68;61.21;94012.36;1623844;86;21096;-50
2022/01/21 05:00:35;;;;;;;227.72;85.32;;;;;;;-7.88;61.13;94002.80;1610393;87;21094;-47
2022/01/21 05:03:04;;;;;;;195.60;72.72;;;;;;;-7.99;61.11;94005.23;1637715;86;21137;-47
2022/01/21 05:05:31;;;;;;;186.03;71.37;;;;;;;-8.17;61.12;94011.30;1636946;86;21620;-47
2022/01/21 05:08:01;;;;;;;233.60;94.37;;;;;;;-8.43;61.03;94015.89;1645399;86;21116;-53
2022/01/21 05:10:27;;;;;;;177.15;72.20;;;;;;;-8.55;62.01;94012.56;1645694;85;21081;-47
2022/01/21 05:12:57;;;;;;;211.87;81.97;;;;;;;-8.61;61.95;94027.28;1638397;86;21064;-48
2022/01/21 05:15:42;;;;;;;219.43;83.75;;;;;;;-8.64;62.12;94021.30;1634740;85;21379;-46
2022/01/21 05:17:55;;;;;;;247.33;93.78;;;;;;;-8.63;62.74;94018.86;1642390;86;20991;-48
2022/01/21 05:20:39;;;;;;;248.62;94.77;;;;;;;-8.47;62.70;94014.28;1603894;85;21163;-47
2022/01/21 05:23:17;;;;;;;218.60;83.78;;;;;;;-8.39;62.61;94017.31;1618341;86;21187;-47
2022/01/21 05:25:47;;;;;;;203.80;81.08;;;;;;;-8.24;63.24;94017.28;1646382;86;21227;-47
2022/01/21 05:28:14;;;;;;;140.37;56.37;;;;;;;-8.13;62.75;94013.48;1614482;86;21212;-52
2022/01/21 05:30:45;;;;;;;246.60;95.47;;;;;;;-8.19;62.72;94013.58;1643208;85;21107;-51
2022/01/21 05:33:16;;;;;;;276.15;105.17;;;;;;;-8.31;62.73;94017.67;1618468;86;21029;-49
2022/01/21 05:36:01;;;;;;;244.45;94.22;;;;;;;-8.37;62.41;94016.41;1651030;86;21155;-52
2022/01/21 05:38:48;;;;;;;255.80;102.80;;;;;;;-8.44;62.54;94017.59;1648996;85;21081;-48
2022/01/21 05:41:31;;;;;;;283.25;124.58;;;;;;;-8.46;62.42;94011.83;1627969;86;21116;-47
2022/01/21 05:44:15;;;;;;;228.77;92.80;;;;;;;-8.45;63.36;94020.05;1642036;86;20889;-48
2022/01/21 05:46:55;;;;;;;261.62;108.17;;;;;;;-8.38;62.85;94018.86;1642182;86;21438;-47
2022/01/21 05:49:42;;;;;;;234.25;97.90;;;;;;;-8.41;62.93;94026.22;1635086;87;21602;-48
2022/01/21 05:52:34;;;;;;;221.10;89.13;;;;;;;-8.35;62.66;94026.16;1650233;86;21075;-49
2022/01/21 05:54:54;;;;;;;267.62;108.42;;;;;;;-8.32;62.37;94029.46;1632274;85;21386;-48
2022/01/21 05:57:22;;;;;;;247.63;99.25;;;;;;;-8.31;62.43;94033.67;1620974;86;21039;-49
2022/01/21 05:59:50;;;;;;;201.15;83.65;;;;;;;-8.24;62.93;94040.52;1615197;86;21002;-48
2022/01/21 06:02:17;;;;;;;205.95;85.70;;;;;;;-8.14;62.93;94029.27;1647428;86;21176;-47
2022/01/21 06:04:46;;;;;;;253.75;105.07;;;;;;;-7.96;63.26;94031.22;1643175;85;21068;-48
2022/01/21 06:07:13;;;;;;;197.82;83.97;;;;;;;-7.83;62.20;94033.98;1643201;86;22060;-48
2022/01/21 06:09:43;;;;;;;195.82;84.80;;;;;;;-7.80;62.16;94029.28;1651609;86;21084;-49
2022/01/21 06:12:10;;;;;;;204.13;81.28;;;;;;;-7.74;62.60;94033.78;1639428;85;21034;-50
2022/01/21 06:14:38;;;;;;;261.55;108.15;;;;;;;-7.65;61.58;94041.80;1646350;86;21081;-49
2022/01/21 06:17:07;;;;;;;283.40;110.70;;;;;;;-7.86;60.96;94039.23;1576413;89;21046;-48
2022/01/21 06:19:34;;;;;;;256.35;107.03;;;;;;;-7.98;61.40;94054.02;1639759;86;21027;-49
2022/01/21 06:22:03;;;;;;;298.20;123.02;;;;;;;-7.94;61.63;94040.19;1641012;85;21045;-49
2022/01/21 06:24:30;;;;;;;304.70;123.18;;;;;;;-7.87;61.40;94049.70;1647954;86;21094;-49
2022/01/21 06:27:03;;;;;;;275.13;113.22;;;;;;;-7.86;61.17;94049.91;1648606;86;21048;-48
2022/01/21 06:29:30;;;;;;;327.32;131.63;;;;;;;-7.84;61.32;94053.00;1643032;84;21049;-49
2022/01/21 06:31:57;;;;;;;338.82;138.32;;;;;;;-7.94;61.47;94044.19;1619191;88;21840;-49
2022/01/21 06:34:23;;;;;;;336.70;142.50;;;;;;;-7.95;62.22;94054.66;1619094;88;21082;-52
2022/01/21 06:36:52;;;;;;;275.70;118.15;;;;;;;-7.80;62.28;94039.95;1619306;87;21086;-51
2022/01/21 06:39:18;;;;;;;262.50;116.50;;;;;;;-7.62;62.24;94056.32;1599785;88;21079;-48
2022/01/21 06:41:48;;;;;;;318.55;138.03;;;;;;;-7.66;61.79;94043.47;1595171;88;21124;-48
2022/01/21 06:44:15;;;;;;;271.10;121.10;;;;;;;-7.64;62.17;94046.56;1619243;88;21173;-48
2022/01/21 06:46:42;;;;;;;259.62;110.70;;;;;;;-7.48;62.32;94056.05;1610310;87;21703;-48
2022/01/21 06:49:09;;;;;;;268.17;125.65;;;;;;;-7.36;61.70;94055.16;1606425;88;21452;-51
2022/01/21 06:51:36;;;;;;;295.77;130.10;;;;;;;-7.37;61.63;94057.04;1582910;88;21808;-51
2022/01/21 06:54:05;;;;;;;287.60;127.05;;;;;;;-7.31;61.93;94052.19;1620396;88;21554;-48
2022/01/21 06:56:32;;;;;;;300.35;134.25;;;;;;;-7.08;61.91;94051.67;1603996;86;21585;-50
2022/01/21 06:58:59;;;;;;;271.27;121.60;;;;;;;-6.89;61.93;94046.51;1637554;85;21160;-51
2022/01/21 07:01:30;;;;;;;377.85;157.72;;;;;;;-6.67;61.85;94043.08;1636208;86;21194;-53
2022/01/21 07:04:00;;;;;;;347.77;147.90;;;;;;;-6.59;61.13;94041.30;1637717;85;21646;-50
2022/01/21 07:06:28;;;;;;;362.98;158.75;;;;;;;-6.68;61.00;94049.55;1639332;84;20991;-50
2022/01/21 07:08:55;;;;;;;423.97;199.70;;;;;;;-6.76;60.96;94050.56;1634799;85;21186;-49
2022/01/21 07:11:21;;;;;;;535.25;264.45;;;;;;;-6.86;61.01;94053.81;1673670;84;21117;-49
2022/01/21 07:13:49;;;;;;;395.65;177.82;;;;;;;-6.84;61.52;94056.14;1643811;85;21506;-51
2022/01/21 07:16:16;;;;;;;370.57;177.93;;;;;;;-6.76;61.76;94049.23;1627561;85;21607;-50
2022/01/21 07:18:42;;;;;;;367.50;177.50;;;;;;;-6.67;61.98;94049.00;1608917;86;21080;-49
2022/01/21 07:21:09;;;;;;;355.95;169.90;;;;;;;-6.46;62.58;94044.79;1596238;87;22184;-50
2022/01/21 07:23:36;;;;;;;302.77;146.13;;;;;;;-6.16;62.53;94041.62;1629891;85;21177;-50
2022/01/21 07:26:05;;;;;;;323.73;152.45;;;;;;;-5.81;62.37;94043.48;1656240;84;21085;-49
2022/01/21 07:28:35;;;;;;;336.62;165.75;;;;;;;-5.61;62.16;94040.09;1661045;84;21530;-52
2022/01/21 07:31:02;;;;;;;290.02;137.90;;;;;;;-5.42;62.37;94038.03;1659088;84;21040;-50
2022/01/21 07:33:30;;;;;;;228.95;108.10;;;;;;;-5.10;61.88;94040.53;1663887;84;23173;-52
2022/01/21 07:35:58;;;;;;;325.60;161.90;;;;;;;-4.91;61.56;94033.66;1638447;85;22285;-51
2022/01/21 07:38:26;;;;;;;328.62;153.45;;;;;;;-4.79;61.37;94039.53;1646458;85;21133;-49
2022/01/21 07:40:53;;;;;;;398.35;197.82;;;;;;;-4.69;60.99;94031.38;1661871;84;21418;-50
2022/01/21 07:43:20;;;;;;;416.88;205.80;;;;;;;-4.73;60.92;94031.93;1612098;84;21010;-52
2022/01/21 07:45:47;;;;;;;446.15;228.70;;;;;;;-4.78;61.00;94033.61;1653945;84;21141;-47
2022/01/21 07:48:14;;;;;;;521.22;269.27;;;;;;;-4.80;60.68;94031.28;1649529;85;21179;-49
2022/01/21 07:50:41;;;;;;;518.30;260.60;;;;;;;-4.77;61.18;94029.78;1609873;86;21089;-50
2022/01/21 07:53:09;;;;;;;550.87;290.40;;;;;;;-4.69;61.01;94028.70;1657073;85;21112;-47
2022/01/21 07:55:36;;;;;;;560.45;287.40;;;;;;;-4.61;61.19;94033.77;1641390;85;21598;-48
2022/01/21 07:58:03;;;;;;;552.92;288.75;;;;;;;-4.45;61.12;94030.86;1653362;85;21100;-47
2022/01/21 08:00:31;;;;;;;538.85;280.37;;;;;;;-4.17;61.06;94031.88;1661431;84;21065;-49
2022/01/21 08:03:02;;;;;;;541.30;283.68;;;;;;;-3.93;60.62;94021.88;1640606;85;21083;-53
2022/01/21 08:05:32;;;;;;;296.80;136.77;;;;;;;-3.63;60.27;94018.99;1597772;87;21062;-50
2022/01/21 08:07:58;;;;;;;387.50;188.57;;;;;;;-3.47;59.19;94025.59;1600052;87;21074;-49
2022/01/21 08:10:24;;;;;;;329.80;148.40;;;;;;;-3.34;58.90;94014.73;1604840;87;22169;-49
2022/01/21 08:12:51;;;;;;;218.35;104.92;;;;;;;-3.23;58.23;94013.62;1604232;87;21566;-49
2022/01/21 08:15:18;;;;;;;206.20;104.17;;;;;;;-3.05;57.32;94010.42;1606040;87;21065;-48
2022/01/21 08:17:45;;;;;;;77.50;39.05;;;;;;;-2.79;57.08;94010.14;1614389;87;21122;-48
2022/01/21 08:20:16;;;;;;;49.48;29.80;;;;;;;-2.46;55.51;94003.66;1608782;87;21100;-49
2022/01/21 08:22:45;;;;;;;65.78;40.45;;;;;;;-2.09;54.10;94015.62;1558072;88;21141;-48
2022/01/21 08:25:17;;;;;;;22.45;12.63;;;;;;;-1.64;53.22;94012.11;1612930;87;21584;-50
2022/01/21 08:27:45;;;;;;;28.50;19.23;;;;;;;-1.31;51.41;94014.34;1596664;87;21086;-48
2022/01/21 08:30:13;;;;;;;19.45;12.68;;;;;;;-1.08;51.58;94014.65;1606928;87;21094;-48
2022/01/21 08:32:43;;;;;;;44.48;28.47;;;;;;;-0.89;50.89;94016.32;1609814;88;21222;-47
2022/01/21 08:35:12;;;;;;;31.68;19.05;;;;;;;-0.69;50.12;94021.43;1610555;87;21539;-48
2022/01/21 08:37:39;;;;;;;22.62;15.98;;;;;;;-0.52;49.89;94014.39;1593059;87;21591;-47
2022/01/21 08:40:07;;;;;;;20.05;13.60;;;;;;;-0.36;49.76;94024.14;1583579;88;21093;-49
2022/01/21 08:42:36;;;;;;;19.42;12.25;;;;;;;-0.21;49.33;94018.83;1608944;87;21489;-47
2022/01/21 08:45:03;;;;;;;30.08;15.28;;;;;;;-0.06;49.09;94016.22;1612815;87;21137;-51
2022/01/21 08:47:32;;;;;;;21.42;11.65;;;;;;;0.11;48.70;94012.02;1603621;87;21125;-49
2022/01/21 08:50:05;;;;;;;23.90;14.05;;;;;;;0.26;48.49;94020.20;1603238;87;21906;-52
2022/01/21 08:52:29;;;;;;;20.08;15.85;;;;;;;0.41;47.64;94022.97;1619910;86;21152;-48
2022/01/21 08:55:01;;;;;;;19.12;12.37;;;;;;;0.49;47.64;94010.91;1627189;86;21187;-48
2022/01/21 08:57:27;;;;;;;30.62;13.22;;;;;;;0.67;47.06;94024.46;1654235;83;21538;-50
2022/01/21 08:59:57;;;;;;;16.93;10.58;;;;;;;0.76;46.46;94019.93;1671422;84;21158;-48
2022/01/21 09:02:26;;;;;;;31.07;16.93;;;;;;;0.86;46.07;94022.52;1635605;84;21046;-50
2022/01/21 09:04:55;;;;;;;61.35;26.45;;;;;;;0.97;45.10;94031.28;1647109;85;21143;-48
2022/01/21 09:07:22;;;;;;;29.23;15.20;;;;;;;1.08;44.31;94037.36;1644965;85;21115;-47
2022/01/21 09:09:48;;;;;;;39.95;18.87;;;;;;;1.13;42.58;94045.03;1654779;84;21076;-49
2022/01/21 09:12:17;;;;;;;9.18;7.55;;;;;;;1.30;41.96;94047.38;1624513;85;21155;-47
2022/01/21 09:14:47;;;;;;;47.08;20.57;;;;;;;1.46;40.54;94057.80;1657337;84;22021;-48
2022/01/21 09:17:16;;;;;;;29.83;19.20;;;;;;;1.36;40.61;94044.39;1673994;84;21090;-49
2022/01/21 09:19:43;;;;;;;37.38;19.32;;;;;;;1.38;40.55;94044.17;1659804;83;21080;-48
2022/01/21 09:22:11;;;;;;;17.70;12.90;;;;;;;1.38;41.22;94048.23;1641400;86;21062;-49
2022/01/21 09:24:38;;;;;;;21.87;13.45;;;;;;;1.46;40.13;94051.60;1626196;87;21369;-49
2022/01/21 09:27:05;;;;;;;14.55;10.15;;;;;;;1.51;40.30;94051.17;1659232;85;20932;-49
2022/01/21 09:29:34;;;;;;;11.97;8.58;;;;;;;1.47;39.94;94045.79;1633574;86;21089;-47
2022/01/21 09:32:05;;;;;;;7.78;6.42;;;;;;;1.47;40.12;94043.08;1640728;86;21071;-49
2022/01/21 09:34:33;;;;;;;14.87;10.82;;;;;;;1.51;39.17;94044.40;1612204;86;21079;-49
2022/01/21 09:37:00;;;;;;;19.05;10.10;;;;;;;1.54;39.61;94050.36;1597758;88;21659;-50
2022/01/21 09:39:28;;;;;;;19.40;11.40;;;;;;;1.66;39.42;94042.45;1640635;85;21176;-48
2022/01/21 09:42:04;;;;;;;27.32;13.68;;;;;;;1.90;39.09;94044.82;1669346;84;21012;-49
2022/01/21 09:44:32;;;;;;;20.08;14.07;;;;;;;2.19;39.27;94036.45;1643015;85;21072;-50
2022/01/21 09:47:00;;;;;;;18.45;11.20;;;;;;;2.33;38.54;94036.82;1648956;84;21722;-51
2022/01/21 09:49:27;;;;;;;13.22;10.00;;;;;;;2.43;38.33;94031.80;1623860;86;21123;-49
2022/01/21 09:52:05;;;;;;;13.05;8.63;;;;;;;2.62;37.31;94022.94;1609908;87;21109;-51
2022/01/21 09:54:34;;;;;;;11.48;8.60;;;;;;;2.86;37.47;94025.23;1644406;85;21017;-49
2022/01/21 09:57:04;;;;;;;15.00;10.50;;;;;;;3.06;36.57;94026.63;1637084;86;21075;-49
2022/01/21 09:59:35;;;;;;;13.10;8.28;;;;;;;3.41;36.67;94020.52;1655683;85;21174;-46
2022/01/21 10:02:06;;;;;;;13.48;8.30;;;;;;;3.85;36.18;94013.94;1646130;85;21114;-50
2022/01/21 10:04:47;;;;;;;13.43;8.93;;;;;;;4.02;35.95;94006.73;1604410;87;21066;-50
2022/01/21 10:07:15;;;;;;;15.10;7.83;;;;;;;4.17;36.74;94009.89;1605358;86;21069;-49
2022/01/21 10:09:44;;;;;;;12.23;7.30;;;;;;;4.15;35.95;94013.62;1614936;87;21249;-51
2022/01/21 10:12:11;;;;;;;11.93;8.13;;;;;;;4.15;36.32;94011.69;1615254;87;21213;-50
2022/01/21 10:14:41;;;;;;;13.58;8.63;;;;;;;4.21;36.97;94013.31;1653511;84;21104;-49
2022/01/21 10:17:10;;;;;;;15.55;8.38;;;;;;;4.30;36.04;94009.39;1652342;84;21057;-53
2022/01/21 10:19:45;;;;;;;11.00;7.67;;;;;;;4.39;35.32;94002.16;1678363;84;21887;-51
2022/01/21 10:22:17;;;;;;;8.98;6.78;;;;;;;4.50;34.80;94004.05;1645516;84;21193;-50
2022/01/21 10:24:59;;;;;;;13.05;10.95;;;;;;;4.54;33.66;93997.91;1660783;84;21067;-48
2022/01/21 10:27:39;;;;;;;10.05;7.42;;;;;;;4.40;33.75;94002.33;1663765;84;21081;-49
2022/01/21 10:30:28;;;;;;;10.85;8.55;;;;;;;4.29;34.84;94001.84;1656558;85;21041;-48
2022/01/21 10:32:55;;;;;;;13.25;9.15;;;;;;;4.13;33.83;94005.91;1646094;85;21084;-49
2022/01/21 10:35:26;;;;;;;7.70;6.25;;;;;;;4.05;33.12;94004.52;1631447;86;21060;-50
2022/01/21 10:37:56;;;;;;;10.90;7.90;;;;;;;3.74;33.80;94004.66;1654103;85;21014;-48
2022/01/21 10:40:22;;;;;;;23.18;12.80;;;;;;;3.51;35.16;94010.78;1645953;84;21506;-48
2022/01/21 10:42:49;;;;;;;9.68;7.28;;;;;;;3.34;34.40;94007.05;1631771;85;21067;-48
2022/01/21 10:45:16;;;;;;;14.53;10.28;;;;;;;3.13;34.55;94006.11;1611385;86;21153;-48
2022/01/21 10:47:55;;;;;;;12.55;11.25;;;;;;;3.01;34.53;93998.56;1613764;86;21731;-49
2022/01/21 10:50:24;;;;;;;18.87;12.58;;;;;;;3.17;34.73;94006.22;1674881;83;21035;-49
2022/01/21 10:52:53;;;;;;;18.77;11.43;;;;;;;3.50;34.54;94010.00;1646843;85;21141;-51
2022/01/21 10:55:37;;;;;;;8.45;6.60;;;;;;;3.59;33.83;94007.49;1648759;84;21792;-51
2022/01/21 10:58:14;;;;;;;8.13;6.55;;;;;;;3.50;34.14;94016.80;1597122;85;33752;-49
2022/01/21 11:01:06;;;;;;;13.70;10.00;;;;;;;3.40;33.83;94016.27;1633195;85;21565;-50
2022/01/21 11:03:36;;;;;;;13.98;8.88;;;;;;;3.34;34.44;94016.55;1637175;86;20959;-50
2022/01/21 11:06:19;;;;;;;17.20;11.73;;;;;;;2.96;34.07;94022.14;1633017;86;21530;-48
2022/01/21 11:09:21;;;;;;;19.02;12.10;;;;;;;2.60;34.71;94011.73;1635307;85;21115;-48
2022/01/21 11:12:08;;;;;;;13.48;9.45;;;;;;;2.17;35.47;94027.19;1631297;84;21078;-48
2022/01/21 11:14:37;;;;;;;17.37;10.50;;;;;;;1.90;35.92;94020.99;1660401;85;20998;-47
2022/01/21 11:17:16;;;;;;;15.13;13.20;;;;;;;1.69;36.47;94011.81;1617282;87;21128;-51
2022/01/21 11:19:40;;;;;;;12.75;9.70;;;;;;;1.61;36.99;94025.86;1617782;85;21097;-50
2022/01/21 11:22:08;;;;;;;11.35;8.80;;;;;;;1.53;37.11;94019.02;1606328;87;21094;-48
2022/01/21 11:24:35;;;;;;;13.00;9.03;;;;;;;1.59;37.40;94018.73;1608183;87;21066;-56
2022/01/21 11:27:14;;;;;;;15.53;8.95;;;;;;;1.76;37.51;94017.90;1612181;87;21058;-48
2022/01/21 11:29:44;;;;;;;11.05;7.42;;;;;;;1.99;38.28;94017.94;1601249;87;21117;-51
2022/01/21 11:32:11;;;;;;;9.83;7.67;;;;;;;2.22;38.44;94014.50;1622168;87;21160;-47
2022/01/21 11:34:39;;;;;;;11.05;7.45;;;;;;;2.33;38.50;94014.51;1616617;87;21524;-50
2022/01/21 11:37:07;;;;;;;12.43;7.85;;;;;;;2.26;38.50;94020.06;1613750;87;21090;-54
2022/01/21 11:39:36;;;;;;;12.00;8.08;;;;;;;2.21;38.60;94020.53;1619493;87;21085;-51
2022/01/21 11:42:06;;;;;;;10.75;7.25;;;;;;;2.02;38.72;94032.64;1606652;87;21145;-51
2022/01/21 11:44:38;;;;;;;10.48;8.18;;;;;;;1.92;38.47;94021.38;1612088;87;21191;-48
2022/01/21 11:47:15;;;;;;;12.75;8.90;;;;;;;1.79;38.74;94021.75;1612881;88;21026;-48
2022/01/21 11:49:55;;;;;;;9.70;7.37;;;;;;;1.63;39.14;94017.52;1604191;87;22030;-54
2022/01/21 11:52:24;;;;;;;12.10;8.00;;;;;;;1.61;39.01;94021.22;1618692;85;21212;-49
2022/01/21 11:54:50;;;;;;;9.03;7.08;;;;;;;1.64;39.07;94019.05;1583504;89;21123;-55
2022/01/21 11:57:30;;;;;;;12.35;8.18;;;;;;;1.84;38.37;94021.28;1617167;86;21836;-49
2022/01/21 12:00:04;;;;;;;11.43;8.48;;;;;;;2.17;38.51;94010.30;1623774;85;21077;-48
2022/01/21 12:02:35;;;;;;;12.00;9.00;;;;;;;2.85;37.96;94016.16;1602800;86;21325;-49
2022/01/21 12:05:05;;;;;;;36.45;19.73;;;;;;;3.91;36.50;94015.71;1629592;87;21492;-48
2022/01/21 12:07:48;;;;;;;17.15;9.50;;;;;;;5.22;34.72;94017.56;1609872;88;21100;-51
2022/01/21 12:10:38;;;;;;;14.05;8.95;;;;;;;6.36;32.40;94013.27;1602406;87;21215;-51